sensor_id;sensor_type;location;lat;lon;timestamp;P1;durP1;ratioP1;P2;durP2;ratioP2
1296;SDS011;641;48.492;9.184;2023-02-19T00:01:33;8.03;;;2.73;;
1296;SDS011;641;48.492;9.184;2023-02-19T00:04:12;8.70;;;3.53;;
1296;SDS011;641;48.492;9.184;2023-02-19T00:06:42;9.70;;;3.93;;
1296;SDS011;641;48.492;9.184;2023-02-19T00:09:13;9.43;;;3.80;;
1296;SDS011;641;48.492;9.184;2023-02-19T00:11:40;9.40;;;4.10;;
1296;SDS011;641;48.492;9.184;2023-02-19T00:14:06;10.00;;;4.23;;
1296;SDS011;641;48.492;9.184;2023-02-19T00:16:33;9.87;;;3.57;;
1296;SDS011;641;48.492;9.184;2023-02-19T00:19:03;9.13;;;3.73;;
1296;SDS011;641;48.492;9.184;2023-02-19T00:21:30;7.83;;;3.33;;
1296;SDS011;641;48.492;9.184;2023-02-19T00:23:58;7.83;;;2.80;;
1296;SDS011;641;48.492;9.184;2023-02-19T00:26:26;7.90;;;2.43;;
1296;SDS011;641;48.492;9.184;2023-02-19T00:28:52;7.63;;;2.70;;
1296;SDS011;641;48.492;9.184;2023-02-19T00:33:47;8.67;;;2.07;;
1296;SDS011;641;48.492;9.184;2023-02-19T00:36:14;9.80;;;2.47;;
1296;SDS011;641;48.492;9.184;2023-02-19T00:38:41;7.20;;;2.03;;
1296;SDS011;641;48.492;9.184;2023-02-19T00:41:08;6.97;;;2.00;;
1296;SDS011;641;48.492;9.184;2023-02-19T00:43:55;7.10;;;2.20;;
1296;SDS011;641;48.492;9.184;2023-02-19T00:48:51;7.47;;;2.20;;
1296;SDS011;641;48.492;9.184;2023-02-19T00:51:17;7.00;;;2.20;;
1296;SDS011;641;48.492;9.184;2023-02-19T00:53:44;7.10;;;1.97;;
1296;SDS011;641;48.492;9.184;2023-02-19T00:56:09;7.33;;;2.40;;
1296;SDS011;641;48.492;9.184;2023-02-19T00:58:36;7.20;;;2.10;;
1296;SDS011;641;48.492;9.184;2023-02-19T01:01:02;7.13;;;1.97;;
1296;SDS011;641;48.492;9.184;2023-02-19T01:03:30;8.93;;;2.57;;
1296;SDS011;641;48.492;9.184;2023-02-19T01:05:56;7.00;;;1.90;;
1296;SDS011;641;48.492;9.184;2023-02-19T01:08:22;7.07;;;1.83;;
1296;SDS011;641;48.492;9.184;2023-02-19T01:10:48;6.87;;;2.20;;
1296;SDS011;641;48.492;9.184;2023-02-19T01:13:13;7.40;;;2.50;;
1296;SDS011;641;48.492;9.184;2023-02-19T01:15:39;7.67;;;1.97;;
1296;SDS011;641;48.492;9.184;2023-02-19T01:18:05;7.60;;;2.33;;
1296;SDS011;641;48.492;9.184;2023-02-19T01:20:30;7.70;;;2.17;;
1296;SDS011;641;48.492;9.184;2023-02-19T01:22:56;6.70;;;2.03;;
1296;SDS011;641;48.492;9.184;2023-02-19T01:25:21;8.77;;;2.20;;
1296;SDS011;641;48.492;9.184;2023-02-19T01:27:47;6.90;;;2.00;;
1296;SDS011;641;48.492;9.184;2023-02-19T01:30:13;7.37;;;2.20;;
1296;SDS011;641;48.492;9.184;2023-02-19T01:32:38;7.40;;;2.20;;
1296;SDS011;641;48.492;9.184;2023-02-19T01:35:04;7.43;;;2.23;;
1296;SDS011;641;48.492;9.184;2023-02-19T01:37:30;8.30;;;2.90;;
1296;SDS011;641;48.492;9.184;2023-02-19T01:39:56;7.97;;;2.33;;
1296;SDS011;641;48.492;9.184;2023-02-19T01:42:21;7.50;;;2.83;;
1296;SDS011;641;48.492;9.184;2023-02-19T01:47:14;7.23;;;2.50;;
1296;SDS011;641;48.492;9.184;2023-02-19T01:49:53;7.70;;;3.00;;
1296;SDS011;641;48.492;9.184;2023-02-19T01:52:22;6.60;;;2.03;;
1296;SDS011;641;48.492;9.184;2023-02-19T01:54:52;8.10;;;2.73;;
1296;SDS011;641;48.492;9.184;2023-02-19T01:57:19;9.03;;;2.37;;
1296;SDS011;641;48.492;9.184;2023-02-19T01:59:49;6.77;;;2.20;;
1296;SDS011;641;48.492;9.184;2023-02-19T02:02:19;7.70;;;2.70;;
1296;SDS011;641;48.492;9.184;2023-02-19T02:04:52;9.37;;;2.50;;
1296;SDS011;641;48.492;9.184;2023-02-19T02:07:20;6.97;;;2.40;;
1296;SDS011;641;48.492;9.184;2023-02-19T02:10:05;7.20;;;1.90;;
1296;SDS011;641;48.492;9.184;2023-02-19T02:12:46;7.23;;;2.13;;
1296;SDS011;641;48.492;9.184;2023-02-19T02:15:16;8.80;;;2.53;;
1296;SDS011;641;48.492;9.184;2023-02-19T02:17:53;6.80;;;2.07;;
1296;SDS011;641;48.492;9.184;2023-02-19T02:29:04;6.47;;;2.17;;
1296;SDS011;641;48.492;9.184;2023-02-19T02:34:06;6.80;;;1.60;;
1296;SDS011;641;48.492;9.184;2023-02-19T02:36:37;6.47;;;1.80;;
1296;SDS011;641;48.492;9.184;2023-02-19T02:39:08;8.07;;;2.10;;
1296;SDS011;641;48.492;9.184;2023-02-19T02:41:44;7.33;;;2.27;;
1296;SDS011;641;48.492;9.184;2023-02-19T02:44:34;7.13;;;1.90;;
1296;SDS011;641;48.492;9.184;2023-02-19T02:47:01;6.83;;;2.10;;
1296;SDS011;641;48.492;9.184;2023-02-19T02:49:30;6.93;;;2.07;;
1296;SDS011;641;48.492;9.184;2023-02-19T02:51:56;8.20;;;1.80;;
1296;SDS011;641;48.492;9.184;2023-02-19T02:54:44;6.40;;;1.80;;
1296;SDS011;641;48.492;9.184;2023-02-19T02:57:28;6.80;;;1.97;;
1296;SDS011;641;48.492;9.184;2023-02-19T02:59:54;6.63;;;1.93;;
1296;SDS011;641;48.492;9.184;2023-02-19T03:02:24;7.50;;;2.23;;
1296;SDS011;641;48.492;9.184;2023-02-19T03:07:57;7.30;;;2.10;;
1296;SDS011;641;48.492;9.184;2023-02-19T03:10:42;6.63;;;1.80;;
1296;SDS011;641;48.492;9.184;2023-02-19T03:13:13;7.00;;;2.10;;
1296;SDS011;641;48.492;9.184;2023-02-19T03:16:27;6.30;;;1.77;;
1296;SDS011;641;48.492;9.184;2023-02-19T03:19:18;6.47;;;1.73;;
1296;SDS011;641;48.492;9.184;2023-02-19T03:24:31;6.80;;;1.70;;
1296;SDS011;641;48.492;9.184;2023-02-19T03:27:18;6.83;;;1.93;;
1296;SDS011;641;48.492;9.184;2023-02-19T03:29:46;7.13;;;1.70;;
1296;SDS011;641;48.492;9.184;2023-02-19T03:32:15;6.57;;;1.80;;
1296;SDS011;641;48.492;9.184;2023-02-19T03:34:56;7.27;;;2.10;;
1296;SDS011;641;48.492;9.184;2023-02-19T03:37:36;6.20;;;1.80;;
1296;SDS011;641;48.492;9.184;2023-02-19T03:40:11;6.50;;;1.40;;
1296;SDS011;641;48.492;9.184;2023-02-19T03:48:35;6.53;;;1.60;;
1296;SDS011;641;48.492;9.184;2023-02-19T03:50:45;7.50;;;1.53;;
1296;SDS011;641;48.492;9.184;2023-02-19T03:53:28;6.17;;;1.53;;
1296;SDS011;641;48.492;9.184;2023-02-19T03:56:04;8.10;;;1.73;;
1296;SDS011;641;48.492;9.184;2023-02-19T04:04:20;6.57;;;1.20;;
1296;SDS011;641;48.492;9.184;2023-02-19T04:06:53;8.73;;;1.43;;
1296;SDS011;641;48.492;9.184;2023-02-19T04:09:21;6.60;;;1.80;;
1296;SDS011;641;48.492;9.184;2023-02-19T04:11:49;6.60;;;1.63;;
1296;SDS011;641;48.492;9.184;2023-02-19T04:14:18;6.30;;;1.60;;
1296;SDS011;641;48.492;9.184;2023-02-19T04:16:50;6.33;;;1.70;;
1296;SDS011;641;48.492;9.184;2023-02-19T04:19:20;6.43;;;1.80;;
1296;SDS011;641;48.492;9.184;2023-02-19T04:21:50;6.53;;;1.63;;
1296;SDS011;641;48.492;9.184;2023-02-19T04:24:18;6.07;;;1.60;;
1296;SDS011;641;48.492;9.184;2023-02-19T04:26:49;6.20;;;1.63;;
1296;SDS011;641;48.492;9.184;2023-02-19T04:29:15;7.83;;;2.63;;
1296;SDS011;641;48.492;9.184;2023-02-19T04:31:40;6.70;;;1.73;;
1296;SDS011;641;48.492;9.184;2023-02-19T04:34:06;6.80;;;1.90;;
1296;SDS011;641;48.492;9.184;2023-02-19T04:36:32;7.03;;;2.63;;
1296;SDS011;641;48.492;9.184;2023-02-19T04:38:58;6.47;;;1.97;;
1296;SDS011;641;48.492;9.184;2023-02-19T04:41:24;6.17;;;1.60;;
1296;SDS011;641;48.492;9.184;2023-02-19T04:43:50;6.33;;;1.43;;
1296;SDS011;641;48.492;9.184;2023-02-19T04:46:15;7.10;;;1.50;;
1296;SDS011;641;48.492;9.184;2023-02-19T04:48:41;6.40;;;1.60;;
1296;SDS011;641;48.492;9.184;2023-02-19T04:51:07;6.07;;;1.50;;
1296;SDS011;641;48.492;9.184;2023-02-19T04:53:33;6.23;;;1.57;;
1296;SDS011;641;48.492;9.184;2023-02-19T04:56:06;8.77;;;1.90;;
1296;SDS011;641;48.492;9.184;2023-02-19T04:58:39;7.40;;;2.00;;
1296;SDS011;641;48.492;9.184;2023-02-19T05:01:06;6.77;;;1.97;;
1296;SDS011;641;48.492;9.184;2023-02-19T05:03:32;7.60;;;2.00;;
1296;SDS011;641;48.492;9.184;2023-02-19T05:06:06;6.40;;;1.70;;
1296;SDS011;641;48.492;9.184;2023-02-19T05:08:33;6.63;;;1.60;;
1296;SDS011;641;48.492;9.184;2023-02-19T05:10:59;6.90;;;1.70;;
1296;SDS011;641;48.492;9.184;2023-02-19T05:13:26;10.90;;;1.87;;
1296;SDS011;641;48.492;9.184;2023-02-19T05:15:53;6.60;;;1.70;;
1296;SDS011;641;48.492;9.184;2023-02-19T05:18:23;6.60;;;1.67;;
1296;SDS011;641;48.492;9.184;2023-02-19T05:20:49;6.33;;;1.60;;
1296;SDS011;641;48.492;9.184;2023-02-19T05:23:15;6.50;;;1.53;;
1296;SDS011;641;48.492;9.184;2023-02-19T05:25:41;6.50;;;1.90;;
1296;SDS011;641;48.492;9.184;2023-02-19T05:28:07;6.43;;;1.60;;
1296;SDS011;641;48.492;9.184;2023-02-19T05:30:42;6.07;;;1.63;;
1296;SDS011;641;48.492;9.184;2023-02-19T05:33:12;6.60;;;1.47;;
1296;SDS011;641;48.492;9.184;2023-02-19T05:35:42;6.60;;;1.50;;
1296;SDS011;641;48.492;9.184;2023-02-19T05:38:09;6.40;;;1.67;;
1296;SDS011;641;48.492;9.184;2023-02-19T05:40:36;6.13;;;1.47;;
1296;SDS011;641;48.492;9.184;2023-02-19T05:43:02;7.23;;;1.30;;
1296;SDS011;641;48.492;9.184;2023-02-19T05:45:29;5.97;;;1.40;;
1296;SDS011;641;48.492;9.184;2023-02-19T05:47:55;6.30;;;1.97;;
1296;SDS011;641;48.492;9.184;2023-02-19T05:50:20;7.03;;;1.60;;
1296;SDS011;641;48.492;9.184;2023-02-19T05:52:46;6.20;;;1.60;;
1296;SDS011;641;48.492;9.184;2023-02-19T05:55:11;7.17;;;1.93;;
1296;SDS011;641;48.492;9.184;2023-02-19T05:57:40;6.40;;;1.60;;
1296;SDS011;641;48.492;9.184;2023-02-19T06:00:07;6.40;;;1.50;;
1296;SDS011;641;48.492;9.184;2023-02-19T06:02:35;7.07;;;1.37;;
1296;SDS011;641;48.492;9.184;2023-02-19T06:05:01;5.73;;;1.23;;
1296;SDS011;641;48.492;9.184;2023-02-19T06:07:27;5.70;;;1.13;;
1296;SDS011;641;48.492;9.184;2023-02-19T06:09:52;6.20;;;1.50;;
1296;SDS011;641;48.492;9.184;2023-02-19T06:12:18;6.80;;;1.33;;
1296;SDS011;641;48.492;9.184;2023-02-19T06:14:43;6.20;;;1.20;;
1296;SDS011;641;48.492;9.184;2023-02-19T06:17:09;5.57;;;1.10;;
1296;SDS011;641;48.492;9.184;2023-02-19T06:19:34;6.20;;;1.53;;
1296;SDS011;641;48.492;9.184;2023-02-19T06:22:00;6.23;;;1.30;;
1296;SDS011;641;48.492;9.184;2023-02-19T06:24:26;6.57;;;1.73;;
1296;SDS011;641;48.492;9.184;2023-02-19T06:26:51;5.60;;;1.07;;
1296;SDS011;641;48.492;9.184;2023-02-19T06:29:17;7.17;;;1.67;;
1296;SDS011;641;48.492;9.184;2023-02-19T06:31:43;5.80;;;1.10;;
1296;SDS011;641;48.492;9.184;2023-02-19T06:34:11;6.00;;;1.27;;
1296;SDS011;641;48.492;9.184;2023-02-19T06:36:37;6.90;;;1.33;;
1296;SDS011;641;48.492;9.184;2023-02-19T06:39:03;6.00;;;1.13;;
1296;SDS011;641;48.492;9.184;2023-02-19T06:41:29;9.60;;;1.70;;
1296;SDS011;641;48.492;9.184;2023-02-19T06:43:58;7.20;;;1.50;;
1296;SDS011;641;48.492;9.184;2023-02-19T06:46:24;6.47;;;1.60;;
1296;SDS011;641;48.492;9.184;2023-02-19T06:48:50;6.00;;;1.10;;
1296;SDS011;641;48.492;9.184;2023-02-19T06:51:16;6.27;;;1.47;;
1296;SDS011;641;48.492;9.184;2023-02-19T06:53:43;6.67;;;1.40;;
1296;SDS011;641;48.492;9.184;2023-02-19T06:58:49;5.90;;;0.90;;
1296;SDS011;641;48.492;9.184;2023-02-19T07:01:16;5.90;;;1.00;;
1296;SDS011;641;48.492;9.184;2023-02-19T07:03:41;5.50;;;0.70;;
1296;SDS011;641;48.492;9.184;2023-02-19T07:06:07;5.70;;;0.90;;
1296;SDS011;641;48.492;9.184;2023-02-19T07:08:33;5.47;;;0.73;;
1296;SDS011;641;48.492;9.184;2023-02-19T07:10:58;5.60;;;0.93;;
1296;SDS011;641;48.492;9.184;2023-02-19T07:13:24;5.60;;;0.70;;
1296;SDS011;641;48.492;9.184;2023-02-19T07:15:51;5.10;;;0.40;;
1296;SDS011;641;48.492;9.184;2023-02-19T07:18:21;5.20;;;0.60;;
1296;SDS011;641;48.492;9.184;2023-02-19T07:20:47;5.37;;;0.73;;
1296;SDS011;641;48.492;9.184;2023-02-19T07:23:12;7.10;;;1.00;;
1296;SDS011;641;48.492;9.184;2023-02-19T07:25:38;6.50;;;1.10;;
1296;SDS011;641;48.492;9.184;2023-02-19T07:28:04;5.77;;;0.93;;
1296;SDS011;641;48.492;9.184;2023-02-19T07:30:31;5.83;;;0.60;;
1296;SDS011;641;48.492;9.184;2023-02-19T07:32:56;5.73;;;0.93;;
1296;SDS011;641;48.492;9.184;2023-02-19T07:35:22;5.60;;;0.90;;
1296;SDS011;641;48.492;9.184;2023-02-19T07:37:47;6.47;;;0.90;;
1296;SDS011;641;48.492;9.184;2023-02-19T07:40:13;7.87;;;0.70;;
1296;SDS011;641;48.492;9.184;2023-02-19T07:42:38;5.80;;;0.80;;
1296;SDS011;641;48.492;9.184;2023-02-19T07:45:04;5.13;;;0.57;;
1296;SDS011;641;48.492;9.184;2023-02-19T07:47:30;6.23;;;0.77;;
1296;SDS011;641;48.492;9.184;2023-02-19T07:49:56;6.40;;;1.00;;
1296;SDS011;641;48.492;9.184;2023-02-19T07:52:21;7.50;;;1.10;;
1296;SDS011;641;48.492;9.184;2023-02-19T07:54:47;6.23;;;1.10;;
1296;SDS011;641;48.492;9.184;2023-02-19T07:57:13;5.23;;;0.53;;
1296;SDS011;641;48.492;9.184;2023-02-19T07:59:39;5.63;;;0.70;;
1296;SDS011;641;48.492;9.184;2023-02-19T08:02:10;5.10;;;0.50;;
1296;SDS011;641;48.492;9.184;2023-02-19T08:04:59;5.20;;;0.40;;
1296;SDS011;641;48.492;9.184;2023-02-19T08:07:29;5.10;;;0.47;;
1296;SDS011;641;48.492;9.184;2023-02-19T08:09:56;5.33;;;0.63;;
1296;SDS011;641;48.492;9.184;2023-02-19T08:12:44;5.73;;;0.60;;
1296;SDS011;641;48.492;9.184;2023-02-19T10:27:52;5.57;;;0.83;;
1296;SDS011;641;48.492;9.184;2023-02-19T10:30:19;6.10;;;1.13;;
1296;SDS011;641;48.492;9.184;2023-02-19T10:32:57;6.80;;;1.20;;
1296;SDS011;641;48.492;9.184;2023-02-19T10:35:37;5.60;;;0.90;;
1296;SDS011;641;48.492;9.184;2023-02-19T10:38:16;6.60;;;1.10;;
1296;SDS011;641;48.492;9.184;2023-02-19T10:40:44;5.80;;;1.00;;
1296;SDS011;641;48.492;9.184;2023-02-19T10:43:19;8.30;;;1.90;;
1296;SDS011;641;48.492;9.184;2023-02-19T10:45:55;5.90;;;1.00;;
1296;SDS011;641;48.492;9.184;2023-02-19T10:48:29;8.87;;;2.67;;
1296;SDS011;641;48.492;9.184;2023-02-19T10:51:01;6.23;;;1.50;;
1296;SDS011;641;48.492;9.184;2023-02-19T10:53:38;6.23;;;1.20;;
1296;SDS011;641;48.492;9.184;2023-02-19T10:56:13;6.70;;;1.63;;
1296;SDS011;641;48.492;9.184;2023-02-19T10:58:48;9.07;;;1.33;;
1296;SDS011;641;48.492;9.184;2023-02-19T11:01:15;5.60;;;0.97;;
1296;SDS011;641;48.492;9.184;2023-02-19T11:03:44;5.30;;;0.70;;
1296;SDS011;641;48.492;9.184;2023-02-19T11:06:12;7.10;;;1.40;;
1296;SDS011;641;48.492;9.184;2023-02-19T11:08:58;7.10;;;2.40;;
1296;SDS011;641;48.492;9.184;2023-02-19T11:11:34;9.80;;;2.00;;
1296;SDS011;641;48.492;9.184;2023-02-19T11:16:43;8.10;;;1.33;;
1296;SDS011;641;48.492;9.184;2023-02-19T11:19:24;9.73;;;2.00;;
1296;SDS011;641;48.492;9.184;2023-02-19T11:21:53;8.00;;;2.50;;
1296;SDS011;641;48.492;9.184;2023-02-19T11:26:54;9.70;;;2.70;;
1296;SDS011;641;48.492;9.184;2023-02-19T11:29:22;8.97;;;2.40;;
1296;SDS011;641;48.492;9.184;2023-02-19T11:31:48;9.40;;;3.47;;
1296;SDS011;641;48.492;9.184;2023-02-19T11:36:45;6.73;;;1.50;;
1296;SDS011;641;48.492;9.184;2023-02-19T11:53:25;6.80;;;1.23;;
1296;SDS011;641;48.492;9.184;2023-02-19T11:58:48;6.13;;;1.30;;
1296;SDS011;641;48.492;9.184;2023-02-19T12:01:37;6.37;;;0.97;;
1296;SDS011;641;48.492;9.184;2023-02-19T12:15:32;6.60;;;1.10;;
1296;SDS011;641;48.492;9.184;2023-02-19T12:18:13;13.30;;;2.27;;
1296;SDS011;641;48.492;9.184;2023-02-19T12:23:42;12.53;;;3.17;;
1296;SDS011;641;48.492;9.184;2023-02-19T12:26:28;8.13;;;1.30;;
1296;SDS011;641;48.492;9.184;2023-02-19T12:31:30;6.90;;;2.00;;
1296;SDS011;641;48.492;9.184;2023-02-19T12:37:32;7.30;;;1.40;;
1296;SDS011;641;48.492;9.184;2023-02-19T12:45:36;7.00;;;1.00;;
1296;SDS011;641;48.492;9.184;2023-02-19T12:48:15;7.20;;;1.57;;
1296;SDS011;641;48.492;9.184;2023-02-19T12:51:01;10.83;;;1.70;;
1296;SDS011;641;48.492;9.184;2023-02-19T12:53:47;7.70;;;1.73;;
1296;SDS011;641;48.492;9.184;2023-02-19T12:56:43;7.77;;;1.20;;
1296;SDS011;641;48.492;9.184;2023-02-19T12:59:25;6.17;;;1.33;;
1296;SDS011;641;48.492;9.184;2023-02-19T13:04:59;6.33;;;0.90;;
1296;SDS011;641;48.492;9.184;2023-02-19T13:07:36;6.57;;;1.30;;
1296;SDS011;641;48.492;9.184;2023-02-19T13:10:21;9.57;;;1.00;;
1296;SDS011;641;48.492;9.184;2023-02-19T13:13:06;7.70;;;1.43;;
1296;SDS011;641;48.492;9.184;2023-02-19T13:15:40;6.57;;;1.10;;
1296;SDS011;641;48.492;9.184;2023-02-19T13:18:13;7.70;;;1.53;;
1296;SDS011;641;48.492;9.184;2023-02-19T13:20:43;18.37;;;6.60;;
1296;SDS011;641;48.492;9.184;2023-02-19T13:23:12;8.70;;;2.03;;
1296;SDS011;641;48.492;9.184;2023-02-19T13:31:38;8.03;;;1.30;;
1296;SDS011;641;48.492;9.184;2023-02-19T13:37:11;8.90;;;1.50;;
1296;SDS011;641;48.492;9.184;2023-02-19T13:39:44;9.57;;;1.40;;
1296;SDS011;641;48.492;9.184;2023-02-19T13:42:27;9.03;;;1.77;;
1296;SDS011;641;48.492;9.184;2023-02-19T13:45:01;6.60;;;1.23;;
1296;SDS011;641;48.492;9.184;2023-02-19T13:47:45;7.00;;;2.50;;
1296;SDS011;641;48.492;9.184;2023-02-19T13:50:18;6.30;;;1.40;;
1296;SDS011;641;48.492;9.184;2023-02-19T13:52:44;6.13;;;0.90;;
1296;SDS011;641;48.492;9.184;2023-02-19T14:00:58;7.67;;;1.00;;
1296;SDS011;641;48.492;9.184;2023-02-19T14:03:26;6.33;;;0.60;;
1296;SDS011;641;48.492;9.184;2023-02-19T14:06:02;5.30;;;0.67;;
1296;SDS011;641;48.492;9.184;2023-02-19T14:08:45;6.23;;;0.77;;
1296;SDS011;641;48.492;9.184;2023-02-19T14:11:11;7.97;;;1.10;;
1296;SDS011;641;48.492;9.184;2023-02-19T14:16:36;5.47;;;0.80;;
1296;SDS011;641;48.492;9.184;2023-02-19T14:19:15;6.97;;;1.20;;
1296;SDS011;641;48.492;9.184;2023-02-19T14:25:17;7.10;;;1.20;;
1296;SDS011;641;48.492;9.184;2023-02-19T14:30:24;6.37;;;1.20;;
1296;SDS011;641;48.492;9.184;2023-02-19T14:32:51;15.83;;;1.50;;
1296;SDS011;641;48.492;9.184;2023-02-19T14:35:21;7.57;;;1.27;;
1296;SDS011;641;48.492;9.184;2023-02-19T14:37:49;7.03;;;1.33;;
1296;SDS011;641;48.492;9.184;2023-02-19T14:40:19;7.13;;;1.97;;
1296;SDS011;641;48.492;9.184;2023-02-19T14:42:48;7.40;;;1.27;;
1296;SDS011;641;48.492;9.184;2023-02-19T14:45:17;7.83;;;1.50;;
1296;SDS011;641;48.492;9.184;2023-02-19T14:47:44;7.63;;;2.00;;
1296;SDS011;641;48.492;9.184;2023-02-19T14:50:24;12.03;;;3.27;;
1296;SDS011;641;48.492;9.184;2023-02-19T14:52:54;6.87;;;1.60;;
1296;SDS011;641;48.492;9.184;2023-02-19T14:55:33;6.27;;;1.10;;
1296;SDS011;641;48.492;9.184;2023-02-19T14:58:12;7.90;;;1.13;;
1296;SDS011;641;48.492;9.184;2023-02-19T15:00:43;7.60;;;1.10;;
1296;SDS011;641;48.492;9.184;2023-02-19T15:06:01;7.50;;;1.30;;
1296;SDS011;641;48.492;9.184;2023-02-19T15:08:37;8.67;;;3.20;;
1296;SDS011;641;48.492;9.184;2023-02-19T15:11:08;6.63;;;1.30;;
1296;SDS011;641;48.492;9.184;2023-02-19T15:13:39;7.10;;;1.40;;
1296;SDS011;641;48.492;9.184;2023-02-19T15:16:09;8.40;;;1.50;;
1296;SDS011;641;48.492;9.184;2023-02-19T15:18:40;7.40;;;2.07;;
1296;SDS011;641;48.492;9.184;2023-02-19T15:21:11;6.37;;;1.33;;
1296;SDS011;641;48.492;9.184;2023-02-19T15:23:46;8.33;;;1.93;;
1296;SDS011;641;48.492;9.184;2023-02-19T15:26:22;11.07;;;1.50;;
1296;SDS011;641;48.492;9.184;2023-02-19T15:28:55;8.40;;;2.00;;
1296;SDS011;641;48.492;9.184;2023-02-19T15:31:25;8.07;;;1.80;;
1296;SDS011;641;48.492;9.184;2023-02-19T15:33:52;8.87;;;2.27;;
1296;SDS011;641;48.492;9.184;2023-02-19T15:36:22;7.73;;;1.70;;
1296;SDS011;641;48.492;9.184;2023-02-19T15:38:52;6.40;;;1.37;;
1296;SDS011;641;48.492;9.184;2023-02-19T15:41:20;7.63;;;1.47;;
1296;SDS011;641;48.492;9.184;2023-02-19T15:43:50;7.43;;;1.47;;
1296;SDS011;641;48.492;9.184;2023-02-19T15:46:20;8.83;;;1.70;;
1296;SDS011;641;48.492;9.184;2023-02-19T15:48:59;10.43;;;1.80;;
1296;SDS011;641;48.492;9.184;2023-02-19T15:51:33;8.63;;;2.00;;
1296;SDS011;641;48.492;9.184;2023-02-19T15:57:07;7.40;;;1.73;;
1296;SDS011;641;48.492;9.184;2023-02-19T15:59:49;10.20;;;2.10;;
1296;SDS011;641;48.492;9.184;2023-02-19T16:02:29;6.80;;;1.70;;
1296;SDS011;641;48.492;9.184;2023-02-19T16:04:57;8.40;;;1.67;;
1296;SDS011;641;48.492;9.184;2023-02-19T16:07:26;11.10;;;1.47;;
1296;SDS011;641;48.492;9.184;2023-02-19T16:12:40;6.50;;;1.40;;
1296;SDS011;641;48.492;9.184;2023-02-19T16:15:12;12.00;;;3.80;;
1296;SDS011;641;48.492;9.184;2023-02-19T16:17:41;7.60;;;1.63;;
1296;SDS011;641;48.492;9.184;2023-02-19T16:20:21;9.27;;;2.53;;
1296;SDS011;641;48.492;9.184;2023-02-19T16:22:50;6.90;;;1.80;;
1296;SDS011;641;48.492;9.184;2023-02-19T16:25:22;8.93;;;2.50;;
1296;SDS011;641;48.492;9.184;2023-02-19T16:27:53;10.90;;;4.00;;
1296;SDS011;641;48.492;9.184;2023-02-19T16:30:26;10.10;;;3.80;;
1296;SDS011;641;48.492;9.184;2023-02-19T16:38:58;12.13;;;5.30;;
1296;SDS011;641;48.492;9.184;2023-02-19T16:41:27;10.73;;;4.53;;
1296;SDS011;641;48.492;9.184;2023-02-19T16:43:52;11.00;;;4.60;;
1296;SDS011;641;48.492;9.184;2023-02-19T16:46:18;15.87;;;7.10;;
1296;SDS011;641;48.492;9.184;2023-02-19T16:48:44;9.57;;;3.03;;
1296;SDS011;641;48.492;9.184;2023-02-19T16:51:12;11.17;;;3.70;;
1296;SDS011;641;48.492;9.184;2023-02-19T16:53:49;9.27;;;3.33;;
1296;SDS011;641;48.492;9.184;2023-02-19T16:58:39;13.73;;;3.10;;
1296;SDS011;641;48.492;9.184;2023-02-19T17:01:05;7.50;;;1.83;;
1296;SDS011;641;48.492;9.184;2023-02-19T17:03:31;10.60;;;2.00;;
1296;SDS011;641;48.492;9.184;2023-02-19T17:05:56;9.50;;;3.67;;
1296;SDS011;641;48.492;9.184;2023-02-19T17:08:35;10.83;;;5.10;;
1296;SDS011;641;48.492;9.184;2023-02-19T17:11:04;14.33;;;10.60;;
1296;SDS011;641;48.492;9.184;2023-02-19T17:13:33;11.73;;;6.10;;
1296;SDS011;641;48.492;9.184;2023-02-19T17:15:59;8.20;;;2.50;;
1296;SDS011;641;48.492;9.184;2023-02-19T17:18:24;9.70;;;4.30;;
1296;SDS011;641;48.492;9.184;2023-02-19T17:20:54;7.53;;;2.70;;
1296;SDS011;641;48.492;9.184;2023-02-19T17:23:39;9.20;;;3.70;;
1296;SDS011;641;48.492;9.184;2023-02-19T17:26:04;11.77;;;3.20;;
1296;SDS011;641;48.492;9.184;2023-02-19T17:28:30;13.13;;;3.47;;
1296;SDS011;641;48.492;9.184;2023-02-19T17:30:55;12.10;;;3.00;;
1296;SDS011;641;48.492;9.184;2023-02-19T17:33:21;11.13;;;3.37;;
1296;SDS011;641;48.492;9.184;2023-02-19T17:35:47;9.73;;;2.43;;
1296;SDS011;641;48.492;9.184;2023-02-19T17:38:12;7.37;;;2.77;;
1296;SDS011;641;48.492;9.184;2023-02-19T17:40:39;9.63;;;2.83;;
1296;SDS011;641;48.492;9.184;2023-02-19T17:43:05;7.27;;;1.80;;
1296;SDS011;641;48.492;9.184;2023-02-19T17:45:31;8.90;;;1.97;;
1296;SDS011;641;48.492;9.184;2023-02-19T17:47:57;9.07;;;2.17;;
1296;SDS011;641;48.492;9.184;2023-02-19T17:50:24;9.33;;;2.50;;
1296;SDS011;641;48.492;9.184;2023-02-19T17:52:53;10.07;;;2.73;;
1296;SDS011;641;48.492;9.184;2023-02-19T17:55:18;7.13;;;2.03;;
1296;SDS011;641;48.492;9.184;2023-02-19T17:57:44;12.23;;;4.40;;
1296;SDS011;641;48.492;9.184;2023-02-19T18:00:15;8.00;;;3.03;;
1296;SDS011;641;48.492;9.184;2023-02-19T18:02:42;10.30;;;3.13;;
1296;SDS011;641;48.492;9.184;2023-02-19T18:05:08;11.23;;;3.90;;
1296;SDS011;641;48.492;9.184;2023-02-19T18:07:33;9.20;;;2.70;;
1296;SDS011;641;48.492;9.184;2023-02-19T18:09:59;9.43;;;2.67;;
1296;SDS011;641;48.492;9.184;2023-02-19T18:12:25;8.90;;;2.50;;
1296;SDS011;641;48.492;9.184;2023-02-19T18:14:52;8.30;;;2.50;;
1296;SDS011;641;48.492;9.184;2023-02-19T18:17:20;7.80;;;1.83;;
1296;SDS011;641;48.492;9.184;2023-02-19T18:19:46;10.30;;;3.10;;
1296;SDS011;641;48.492;9.184;2023-02-19T18:22:12;11.20;;;2.83;;
1296;SDS011;641;48.492;9.184;2023-02-19T18:24:37;8.20;;;2.43;;
1296;SDS011;641;48.492;9.184;2023-02-19T18:27:03;10.03;;;2.70;;
1296;SDS011;641;48.492;9.184;2023-02-19T18:29:28;7.97;;;2.30;;
1296;SDS011;641;48.492;9.184;2023-02-19T18:31:54;8.40;;;2.70;;
1296;SDS011;641;48.492;9.184;2023-02-19T18:34:20;8.90;;;2.10;;
1296;SDS011;641;48.492;9.184;2023-02-19T18:36:46;14.60;;;3.87;;
1296;SDS011;641;48.492;9.184;2023-02-19T18:39:13;17.50;;;4.93;;
1296;SDS011;641;48.492;9.184;2023-02-19T18:41:39;14.20;;;3.67;;
1296;SDS011;641;48.492;9.184;2023-02-19T18:44:05;8.80;;;3.20;;
1296;SDS011;641;48.492;9.184;2023-02-19T18:46:30;9.50;;;3.23;;
1296;SDS011;641;48.492;9.184;2023-02-19T18:48:56;9.53;;;3.30;;
1296;SDS011;641;48.492;9.184;2023-02-19T18:51:22;10.77;;;2.30;;
1296;SDS011;641;48.492;9.184;2023-02-19T18:53:47;8.77;;;2.70;;
1296;SDS011;641;48.492;9.184;2023-02-19T18:56:14;7.67;;;2.30;;
1296;SDS011;641;48.492;9.184;2023-02-19T18:58:39;8.43;;;2.40;;
1296;SDS011;641;48.492;9.184;2023-02-19T19:01:05;7.87;;;2.30;;
1296;SDS011;641;48.492;9.184;2023-02-19T19:03:30;11.90;;;2.70;;
1296;SDS011;641;48.492;9.184;2023-02-19T19:05:56;9.67;;;2.50;;
1296;SDS011;641;48.492;9.184;2023-02-19T19:08:22;8.43;;;1.77;;
1296;SDS011;641;48.492;9.184;2023-02-19T19:10:48;9.60;;;2.40;;
1296;SDS011;641;48.492;9.184;2023-02-19T19:13:13;8.30;;;2.90;;
1296;SDS011;641;48.492;9.184;2023-02-19T19:15:39;8.37;;;2.73;;
1296;SDS011;641;48.492;9.184;2023-02-19T19:18:05;12.93;;;4.50;;
1296;SDS011;641;48.492;9.184;2023-02-19T19:20:31;8.90;;;3.07;;
1296;SDS011;641;48.492;9.184;2023-02-19T19:22:57;7.47;;;2.50;;
1296;SDS011;641;48.492;9.184;2023-02-19T19:25:22;8.10;;;2.30;;
1296;SDS011;641;48.492;9.184;2023-02-19T19:27:48;7.20;;;2.23;;
1296;SDS011;641;48.492;9.184;2023-02-19T19:30:15;9.30;;;3.00;;
1296;SDS011;641;48.492;9.184;2023-02-19T19:32:41;12.13;;;4.27;;
1296;SDS011;641;48.492;9.184;2023-02-19T19:35:07;11.00;;;2.60;;
1296;SDS011;641;48.492;9.184;2023-02-19T19:37:33;8.37;;;2.00;;
1296;SDS011;641;48.492;9.184;2023-02-19T19:39:58;8.53;;;2.30;;
1296;SDS011;641;48.492;9.184;2023-02-19T19:42:24;10.00;;;2.40;;
1296;SDS011;641;48.492;9.184;2023-02-19T19:44:49;9.73;;;2.20;;
1296;SDS011;641;48.492;9.184;2023-02-19T19:47:15;8.77;;;2.30;;
1296;SDS011;641;48.492;9.184;2023-02-19T19:49:41;9.20;;;2.53;;
1296;SDS011;641;48.492;9.184;2023-02-19T19:52:08;7.53;;;2.20;;
1296;SDS011;641;48.492;9.184;2023-02-19T19:54:34;10.30;;;1.80;;
1296;SDS011;641;48.492;9.184;2023-02-19T19:56:59;8.10;;;2.03;;
1296;SDS011;641;48.492;9.184;2023-02-19T19:59:25;8.17;;;1.80;;
1296;SDS011;641;48.492;9.184;2023-02-19T20:01:51;8.13;;;1.90;;
1296;SDS011;641;48.492;9.184;2023-02-19T20:04:19;8.87;;;2.30;;
1296;SDS011;641;48.492;9.184;2023-02-19T20:06:46;8.47;;;2.10;;
1296;SDS011;641;48.492;9.184;2023-02-19T20:09:13;8.10;;;2.30;;